createdAt,value
2022-09-26T00:01:39.952Z,15.37
2022-09-26T00:04:22.878Z,15.43
2022-09-26T00:06:55.927Z,15.38
2022-09-26T00:09:26.396Z,15.36
2022-09-26T00:11:56.967Z,15.31
2022-09-26T00:14:28.532Z,15.27
2022-09-26T00:16:56.324Z,15.25
2022-09-26T00:19:24.592Z,15.29
2022-09-26T00:21:51.972Z,15.37
2022-09-26T00:24:19.083Z,15.19
2022-09-26T00:26:46.424Z,15.34
2022-09-26T00:29:14.451Z,15.36
2022-09-26T00:31:45.484Z,15.35
2022-09-26T00:34:15.582Z,15.35
2022-09-26T00:36:42.741Z,15.33
2022-09-26T00:39:12.541Z,15.37
2022-09-26T00:41:39.702Z,15.36
2022-09-26T00:44:36.663Z,15.18
2022-09-26T00:47:05.533Z,15.11
2022-09-26T00:49:42.869Z,15.20
2022-09-26T00:52:24.834Z,15.34
2022-09-26T00:54:56.492Z,15.36
2022-09-26T00:57:41.901Z,15.28
2022-09-26T01:00:17.705Z,14.56
2022-09-26T01:02:50.666Z,14.82
2022-09-26T01:05:21.749Z,14.96
2022-09-26T01:07:50.971Z,15.07
2022-09-26T01:10:18.631Z,14.70
2022-09-26T01:12:45.642Z,15.02
2022-09-26T01:15:15.243Z,14.96
2022-09-26T01:17:44.472Z,15.17
2022-09-26T01:20:49.021Z,15.20
2022-09-26T01:24:22.187Z,15.26
2022-09-26T01:27:22.842Z,15.07
2022-09-26T01:30:14.711Z,15.13
2022-09-26T01:33:02.026Z,15.11
2022-09-26T01:35:52.264Z,14.96
2022-09-26T01:38:44.683Z,14.94
2022-09-26T01:41:39.256Z,14.87
2022-09-26T01:44:39.083Z,15.10
2022-09-26T01:47:51.379Z,15.18
2022-09-26T01:50:42.905Z,15.12
2022-09-26T01:53:22.511Z,14.94
2022-09-26T01:55:58.775Z,14.77
2022-09-26T01:58:42.890Z,14.96
2022-09-26T02:01:14.901Z,14.60
2022-09-26T02:03:58.997Z,14.81
2022-09-26T02:06:56.797Z,14.88
2022-09-26T02:09:40.975Z,14.75
2022-09-26T02:12:13.130Z,14.92
2022-09-26T02:14:43.385Z,14.82
2022-09-26T02:17:40.279Z,15.09
2022-09-26T02:20:26.982Z,14.97
2022-09-26T02:22:57.915Z,15.16
2022-09-26T02:25:25.955Z,14.60
2022-09-26T02:27:52.989Z,14.38
2022-09-26T02:30:22.556Z,14.80
2022-09-26T02:32:49.654Z,14.76
2022-09-26T02:35:36.161Z,14.78
2022-09-26T02:38:05.732Z,14.51
2022-09-26T02:40:58.110Z,14.59
2022-09-26T02:43:36.985Z,14.56
2022-09-26T02:46:40.961Z,14.78
2022-09-26T02:49:58.882Z,14.41
2022-09-26T02:52:49.007Z,14.36
2022-09-26T02:55:37.293Z,14.55
2022-09-26T02:58:13.856Z,14.20
2022-09-26T03:01:03.173Z,14.58
2022-09-26T03:03:43.266Z,14.70
2022-09-26T03:06:15.925Z,14.76
2022-09-26T03:08:47.520Z,14.99
2022-09-26T03:11:24.816Z,14.94
2022-09-26T03:13:55.046Z,15.03
2022-09-26T03:16:25.792Z,14.95
2022-09-26T03:19:07.959Z,14.83
2022-09-26T03:21:37.091Z,14.90
2022-09-26T03:24:04.574Z,14.72
2022-09-26T03:26:32.903Z,14.79
2022-09-26T03:29:00.150Z,14.63
2022-09-26T03:31:28.427Z,14.54
2022-09-26T03:34:00.043Z,14.67
2022-09-26T03:36:32.314Z,14.72
2022-09-26T03:38:59.542Z,14.76
2022-09-26T03:41:26.687Z,14.84
2022-09-26T03:43:53.838Z,14.75
2022-09-26T03:46:20.843Z,14.70
2022-09-26T03:48:49.183Z,14.73
2022-09-26T03:51:16.694Z,14.96
2022-09-26T03:53:47.151Z,14.39
2022-09-26T03:56:18.117Z,14.53
2022-09-26T03:58:46.089Z,13.55
2022-09-26T04:01:16.748Z,13.58
2022-09-26T04:03:50.844Z,12.97
2022-09-26T04:06:20.677Z,13.87
2022-09-26T04:08:52.643Z,14.24
2022-09-26T04:11:24.721Z,14.41
2022-09-26T04:13:55.072Z,14.38
2022-09-26T04:16:26.274Z,14.65
2022-09-26T04:18:57.539Z,14.70
2022-09-26T04:21:29.720Z,14.57
2022-09-26T04:23:57.144Z,14.55
2022-09-26T04:26:24.825Z,14.65
2022-09-26T04:28:55.092Z,14.78
2022-09-26T04:31:24.268Z,14.81
2022-09-26T04:33:51.950Z,14.42
2022-09-26T04:36:21.011Z,14.60
2022-09-26T04:38:48.110Z,14.38
2022-09-26T04:41:21.188Z,14.40
2022-09-26T04:43:49.217Z,14.48
2022-09-26T04:46:28.203Z,13.06
2022-09-26T04:49:00.419Z,13.89
2022-09-26T04:51:30.603Z,14.22
2022-09-26T04:53:58.149Z,14.27
2022-09-26T04:56:28.910Z,13.41
2022-09-26T04:58:58.409Z,13.89
2022-09-26T05:01:26.240Z,13.59
2022-09-26T05:03:57.137Z,14.02
2022-09-26T05:06:24.406Z,14.45
2022-09-26T05:08:51.686Z,14.40
2022-09-26T05:11:21.731Z,14.48
2022-09-26T05:13:53.742Z,14.78
2022-09-26T05:16:21.902Z,13.95
2022-09-26T05:18:56.063Z,14.47
2022-09-26T05:21:23.079Z,14.37
2022-09-26T05:24:08.457Z,14.37
2022-09-26T05:26:46.631Z,14.79
2022-09-26T05:29:17.435Z,14.94
2022-09-26T05:31:44.632Z,14.92
2022-09-26T05:34:16.847Z,14.69
2022-09-26T05:36:45.684Z,14.67
2022-09-26T05:39:31.615Z,14.12
2022-09-26T05:41:59.867Z,14.11
2022-09-26T05:44:27.588Z,14.76
2022-09-26T05:46:55.218Z,14.98
2022-09-26T05:49:26.004Z,15.15
2022-09-26T05:51:53.866Z,15.26
2022-09-26T05:54:20.966Z,15.38
2022-09-26T05:56:48.358Z,15.14
2022-09-26T05:59:20.433Z,15.59
2022-09-26T06:01:50.569Z,15.36
2022-09-26T06:04:19.890Z,15.52
2022-09-26T06:06:49.098Z,15.77
2022-09-26T06:09:16.241Z,15.60
2022-09-26T06:11:43.428Z,15.29
2022-09-26T06:14:10.431Z,15.55
2022-09-26T06:16:37.476Z,14.98
2022-09-26T06:19:04.599Z,14.79
2022-09-26T06:21:31.760Z,14.28
2022-09-26T06:23:58.781Z,14.61
2022-09-26T06:26:29.005Z,15.12
2022-09-26T06:29:19.627Z,15.44
2022-09-26T06:31:46.680Z,16.02
2022-09-26T06:34:14.850Z,16.49
2022-09-26T06:36:41.814Z,16.51
2022-09-26T06:39:08.914Z,16.50
2022-09-26T06:41:36.034Z,16.74
2022-09-26T06:44:03.173Z,17.04
2022-09-26T06:46:33.343Z,16.89
2022-09-26T06:49:02.791Z,17.51
2022-09-26T06:51:29.893Z,17.69
2022-09-26T06:54:00.571Z,17.99
2022-09-26T06:56:27.712Z,17.98
2022-09-26T06:58:54.871Z,18.47
2022-09-26T07:01:24.477Z,18.71
2022-09-26T07:03:54.137Z,18.92
2022-09-26T07:06:21.437Z,18.86
2022-09-26T07:09:08.561Z,18.79
2022-09-26T07:11:50.906Z,19.15
2022-09-26T07:14:23.382Z,19.79
2022-09-26T07:16:52.005Z,21.05
2022-09-26T07:19:19.353Z,21.26
2022-09-26T07:21:48.113Z,20.53
2022-09-26T07:24:15.135Z,21.35
2022-09-26T07:26:42.830Z,19.76
2022-09-26T07:29:10.591Z,19.79
2022-09-26T07:31:37.674Z,19.74
2022-09-26T07:34:05.006Z,20.46
2022-09-26T07:36:32.048Z,19.86
2022-09-26T07:38:59.447Z,19.97
2022-09-26T07:41:31.123Z,19.57
2022-09-26T07:47:05.265Z,19.46
2022-09-26T07:49:50.675Z,19.29
2022-09-26T07:52:18.449Z,18.71
2022-09-26T07:54:45.613Z,19.12
2022-09-26T07:57:12.687Z,18.90
2022-09-26T07:59:39.835Z,18.30
2022-09-26T08:02:20.794Z,18.98
2022-09-26T08:04:48.053Z,19.19
2022-09-26T08:07:16.147Z,18.84
2022-09-26T08:09:45.698Z,19.15
2022-09-26T08:12:14.624Z,19.70
2022-09-26T08:14:41.989Z,19.99
2022-09-26T08:17:13.482Z,20.13
2022-09-26T08:19:41.306Z,19.90
2022-09-26T08:22:11.870Z,18.99
2022-09-26T08:24:39.756Z,19.07
2022-09-26T08:27:07.066Z,19.18
2022-09-26T08:29:35.114Z,19.51
2022-09-26T08:32:03.454Z,19.39
2022-09-26T08:34:32.212Z,19.49
2022-09-26T08:36:59.252Z,20.70
2022-09-26T08:39:29.038Z,21.03
2022-09-26T08:42:28.769Z,21.79
2022-09-26T08:45:47.914Z,22.41
2022-09-26T08:48:30.447Z,22.09
2022-09-26T08:51:34.429Z,21.90
2022-09-26T08:54:12.963Z,21.74
2022-09-26T08:56:47.260Z,21.41
2022-09-26T08:59:44.028Z,21.41
2022-09-26T09:02:50.161Z,21.76
2022-09-26T09:05:23.248Z,21.82
2022-09-26T09:07:55.080Z,22.26
2022-09-26T09:11:06.929Z,21.24
2022-09-26T09:13:58.003Z,22.78
2022-09-26T09:16:54.589Z,22.26
2022-09-26T09:19:30.121Z,22.83
2022-09-26T09:22:18.713Z,23.53
2022-09-26T09:25:11.901Z,24.13
2022-09-26T09:28:29.219Z,24.71
2022-09-26T09:31:05.543Z,23.89
2022-09-26T09:33:41.525Z,24.25
2022-09-26T09:36:23.783Z,23.85
2022-09-26T09:38:53.100Z,22.75
2022-09-26T09:41:53.020Z,22.66
2022-09-26T09:45:05.249Z,22.31
2022-09-26T09:47:38.443Z,22.77
2022-09-26T09:50:36.685Z,23.30
2022-09-26T09:53:50.144Z,23.26
2022-09-26T09:56:52.072Z,23.70
2022-09-26T09:59:45.011Z,23.66
2022-09-26T10:02:40.953Z,22.77
2022-09-26T10:05:23.910Z,22.38
2022-09-26T10:07:58.523Z,21.60
2022-09-26T10:11:00.478Z,21.46
2022-09-26T10:13:31.630Z,21.85
2022-09-26T10:16:06.603Z,21.78
2022-09-26T10:18:52.204Z,21.35
2022-09-26T10:21:19.760Z,23.49
2022-09-26T10:23:50.954Z,24.69
2022-09-26T10:26:30.493Z,24.00
2022-09-26T10:29:08.244Z,22.87
2022-09-26T10:31:43.063Z,24.00
2022-09-26T10:34:32.451Z,23.15
2022-09-26T10:37:24.774Z,24.58
2022-09-26T10:40:16.602Z,24.91
2022-09-26T10:42:47.250Z,25.14
2022-09-26T10:45:21.273Z,25.62
2022-09-26T10:47:51.369Z,24.98
2022-09-26T10:50:28.521Z,25.32
2022-09-26T10:53:04.846Z,26.39
2022-09-26T10:55:44.039Z,26.73
2022-09-26T10:58:24.205Z,26.59
2022-09-26T11:00:51.767Z,26.40
2022-09-26T11:03:26.213Z,25.38
2022-09-26T11:05:59.987Z,25.23
2022-09-26T11:08:37.873Z,25.49
2022-09-26T11:11:13.734Z,24.99
2022-09-26T11:14:03.628Z,25.47
2022-09-26T11:16:44.606Z,25.79
2022-09-26T11:19:22.331Z,24.88
2022-09-26T11:22:27.296Z,24.17
2022-09-26T11:25:30.534Z,23.92
2022-09-26T11:28:12.031Z,24.59
2022-09-26T11:30:47.884Z,24.63
2022-09-26T11:33:18.835Z,24.60
2022-09-26T11:36:06.614Z,24.64
2022-09-26T11:38:55.956Z,24.23
2022-09-26T11:42:04.130Z,24.28
2022-09-26T11:44:54.445Z,24.76
2022-09-26T11:48:18.891Z,24.54
2022-09-26T11:50:56.517Z,24.79
2022-09-26T11:53:56.305Z,24.45
2022-09-26T11:57:00.059Z,25.09
2022-09-26T11:59:36.420Z,25.77
2022-09-26T12:02:41.134Z,26.70
2022-09-26T12:05:39.988Z,27.10
2022-09-26T12:08:47.737Z,25.79
2022-09-26T12:11:32.830Z,26.28
2022-09-26T12:14:25.693Z,25.90
2022-09-26T12:17:01.927Z,25.14
2022-09-26T12:19:47.347Z,24.94
2022-09-26T12:23:05.702Z,25.13
2022-09-26T12:26:02.635Z,25.19
2022-09-26T12:29:02.946Z,25.11
2022-09-26T12:31:52.337Z,24.18
2022-09-26T12:34:37.825Z,24.46
2022-09-26T12:37:39.442Z,24.77
2022-09-26T12:41:04.716Z,23.59
2022-09-26T12:44:02.562Z,23.69
2022-09-26T12:46:58.334Z,23.89
2022-09-26T12:49:36.469Z,24.13
2022-09-26T12:52:27.716Z,24.70
2022-09-26T12:55:00.410Z,24.30
2022-09-26T12:57:52.296Z,25.32
2022-09-26T13:00:22.227Z,26.14
2022-09-26T13:03:21.226Z,26.28
2022-09-26T13:06:16.158Z,24.24
2022-09-26T13:09:20.041Z,25.90
2022-09-26T13:12:26.505Z,26.75
2022-09-26T13:15:37.418Z,26.26
2022-09-26T13:18:50.847Z,26.09
2022-09-26T13:21:37.388Z,27.03
2022-09-26T13:24:22.716Z,25.51
2022-09-26T13:27:00.510Z,26.18
2022-09-26T13:29:37.617Z,25.75
2022-09-26T13:32:29.113Z,24.55
2022-09-26T13:35:04.173Z,25.11
2022-09-26T13:38:08.267Z,24.88
2022-09-26T13:41:13.496Z,24.76
2022-09-26T13:43:53.474Z,25.24
2022-09-26T13:47:13.423Z,25.31
2022-09-26T13:49:51.151Z,24.84
2022-09-26T13:52:57.023Z,24.55
2022-09-26T13:55:26.459Z,24.60
2022-09-26T13:58:00.879Z,24.70
2022-09-26T14:00:38.926Z,24.87
2022-09-26T14:03:16.626Z,24.42
2022-09-26T14:05:50.811Z,24.13
2022-09-26T14:08:42.725Z,24.19
2022-09-26T14:11:43.921Z,24.24
2022-09-26T14:14:17.790Z,23.31
2022-09-26T14:16:47.386Z,23.08
2022-09-26T14:19:49.148Z,23.30
2022-09-26T14:22:19.115Z,22.38
2022-09-26T14:24:53.593Z,22.77
2022-09-26T14:27:39.480Z,22.34
2022-09-26T14:30:30.477Z,21.85
2022-09-26T14:33:09.321Z,21.54
2022-09-26T14:35:39.680Z,21.36
2022-09-26T14:38:21.128Z,21.40
2022-09-26T14:40:59.601Z,20.75
2022-09-26T14:43:30.342Z,21.47
2022-09-26T14:46:10.654Z,21.46
2022-09-26T14:48:42.764Z,21.20
2022-09-26T14:51:12.661Z,20.80
2022-09-26T14:53:54.728Z,20.82
2022-09-26T14:56:27.559Z,21.05
2022-09-26T14:59:16.624Z,20.49
2022-09-26T15:01:45.043Z,20.75
2022-09-26T15:04:36.280Z,21.08
2022-09-26T15:07:18.142Z,21.01
2022-09-26T15:09:59.846Z,20.81
2022-09-26T15:12:52.545Z,20.72
2022-09-26T15:15:50.550Z,20.77
2022-09-26T15:18:26.455Z,20.95
2022-09-26T15:21:32.874Z,20.91
2022-09-26T15:24:03.876Z,20.78
2022-09-26T15:26:39.921Z,20.69
2022-09-26T15:29:11.537Z,20.71
2022-09-26T15:31:42.389Z,20.80
2022-09-26T15:34:36.000Z,20.87
2022-09-26T15:37:23.075Z,20.89
2022-09-26T15:39:51.289Z,20.79
2022-09-26T15:42:41.569Z,20.83
2022-09-26T15:45:27.465Z,20.71
2022-09-26T15:48:24.275Z,20.67
2022-09-26T15:51:00.194Z,20.87
2022-09-26T15:53:45.424Z,20.90
2022-09-26T15:56:19.539Z,20.99
2022-09-26T15:59:31.672Z,21.02
2022-09-26T16:02:00.473Z,21.06
2022-09-26T16:04:30.274Z,20.94
2022-09-26T16:07:02.158Z,20.97
2022-09-26T16:09:40.235Z,20.90
2022-09-26T16:12:24.769Z,20.67
2022-09-26T16:15:08.026Z,20.57
2022-09-26T16:17:49.127Z,20.65
2022-09-26T16:20:16.442Z,20.02
2022-09-26T16:22:46.428Z,20.16
2022-09-26T16:25:19.669Z,20.12
2022-09-26T16:27:49.497Z,20.07
2022-09-26T16:30:28.606Z,19.92
2022-09-26T16:33:07.885Z,19.66
2022-09-26T16:35:46.567Z,19.56
2022-09-26T16:38:29.361Z,19.54
2022-09-26T16:41:10.724Z,19.42
2022-09-26T16:43:38.510Z,19.48
2022-09-26T16:46:10.306Z,19.40
2022-09-26T16:48:52.407Z,19.46
2022-09-26T16:51:24.830Z,19.52
2022-09-26T16:54:05.285Z,19.35
2022-09-26T16:56:34.131Z,19.25
2022-09-26T16:59:06.668Z,19.27
2022-09-26T17:01:53.013Z,18.66
2022-09-26T17:04:35.656Z,19.16
2022-09-26T17:07:09.805Z,19.03
2022-09-26T17:09:37.109Z,18.95
2022-09-26T17:12:24.441Z,19.09
2022-09-26T17:15:00.796Z,19.22
2022-09-26T17:17:28.282Z,19.14
2022-09-26T17:19:59.185Z,19.10
2022-09-26T17:22:27.513Z,19.18
2022-09-26T17:24:55.357Z,19.30
2022-09-26T17:27:27.387Z,19.34
2022-09-26T17:30:05.148Z,19.12
2022-09-26T17:32:38.179Z,18.78
2022-09-26T17:35:33.138Z,18.85
2022-09-26T17:38:01.086Z,19.05
2022-09-26T17:40:32.146Z,19.18
2022-09-26T17:43:01.941Z,19.22
2022-09-26T17:45:46.674Z,18.77
2022-09-26T17:48:31.419Z,18.82
2022-09-26T17:51:02.157Z,18.75
2022-09-26T17:53:37.154Z,18.98
2022-09-26T17:56:06.499Z,18.70
2022-09-26T17:58:38.129Z,19.00
2022-09-26T18:01:06.500Z,18.76
2022-09-26T18:03:36.693Z,18.99
2022-09-26T18:06:04.123Z,19.01
2022-09-26T18:08:36.340Z,19.16
2022-09-26T18:11:05.258Z,19.06
2022-09-26T18:13:36.486Z,19.12
2022-09-26T18:16:06.234Z,19.06
2022-09-26T18:18:34.638Z,19.27
2022-09-26T18:21:05.222Z,19.03
2022-09-26T18:23:55.664Z,18.85
2022-09-26T18:26:42.201Z,18.53
2022-09-26T18:29:13.586Z,18.82
2022-09-26T18:31:41.617Z,18.47
2022-09-26T18:34:19.937Z,18.23
2022-09-26T18:36:50.000Z,18.55
2022-09-26T18:39:17.353Z,18.43
2022-09-26T18:41:45.303Z,18.66
2022-09-26T18:44:17.325Z,18.76
2022-09-26T18:46:47.062Z,19.04
2022-09-26T18:49:18.939Z,19.16
2022-09-26T18:51:48.440Z,19.17
2022-09-26T18:54:17.130Z,19.19
2022-09-26T18:57:08.063Z,19.13
2022-09-26T18:59:35.065Z,19.06
2022-09-26T19:02:04.229Z,19.20
2022-09-26T19:04:31.746Z,18.94
2022-09-26T19:07:06.569Z,18.75
2022-09-26T19:09:35.727Z,18.51
2022-09-26T19:12:06.263Z,18.56
2022-09-26T19:14:33.404Z,18.66
2022-09-26T19:17:00.568Z,18.79
2022-09-26T19:19:32.497Z,18.59
2022-09-26T19:22:27.280Z,18.42
2022-09-26T19:24:59.381Z,18.09
2022-09-26T19:27:43.022Z,18.08
2022-09-26T19:30:22.401Z,18.08
2022-09-26T19:32:53.100Z,18.18
2022-09-26T19:35:41.612Z,18.20
2022-09-26T19:38:27.530Z,17.73
2022-09-26T19:40:54.693Z,17.85
2022-09-26T19:43:22.738Z,17.85
2022-09-26T19:45:54.477Z,17.84
2022-09-26T19:48:23.435Z,17.88
2022-09-26T19:50:52.534Z,17.75
2022-09-26T19:53:23.732Z,17.73
2022-09-26T19:55:51.237Z,17.66
2022-09-26T19:58:24.255Z,17.61
2022-09-26T20:00:58.421Z,17.30
2022-09-26T20:03:41.799Z,17.41
2022-09-26T20:06:27.257Z,16.83
2022-09-26T20:09:02.171Z,16.51
2022-09-26T20:11:32.312Z,16.73
2022-09-26T20:14:18.172Z,16.77
2022-09-26T20:16:47.293Z,16.90
2022-09-26T20:19:30.995Z,16.80
2022-09-26T20:22:02.043Z,16.83
2022-09-26T20:24:37.081Z,16.77
2022-09-26T20:27:07.549Z,16.51
2022-09-26T20:29:55.296Z,16.31
2022-09-26T20:32:22.393Z,16.28
2022-09-26T20:34:49.572Z,16.18
2022-09-26T20:37:23.704Z,15.85
2022-09-26T20:39:52.531Z,15.58
2022-09-26T20:42:19.940Z,16.04
2022-09-26T20:44:50.853Z,16.05
2022-09-26T20:47:21.717Z,15.88
2022-09-26T20:50:01.359Z,15.72
2022-09-26T20:52:30.188Z,15.65
2022-09-26T20:54:57.657Z,15.41
2022-09-26T20:57:25.111Z,15.76
2022-09-26T20:59:52.387Z,15.56
2022-09-26T21:02:39.346Z,15.62
2022-09-26T21:05:17.979Z,15.65
2022-09-26T21:07:47.739Z,15.30
2022-09-26T21:10:34.765Z,14.61
2022-09-26T21:13:03.625Z,14.77
2022-09-26T21:15:33.024Z,15.04
2022-09-26T21:18:01.619Z,15.27
2022-09-26T21:20:31.316Z,15.09
2022-09-26T21:23:01.463Z,15.26
2022-09-26T21:25:31.195Z,15.19
2022-09-26T21:28:03.226Z,15.09
2022-09-26T21:30:33.680Z,14.96
2022-09-26T21:33:03.464Z,15.02
2022-09-26T21:35:31.987Z,15.02
2022-09-26T21:38:00.987Z,14.89
2022-09-26T21:40:31.803Z,14.85
2022-09-26T21:43:35.585Z,14.69
2022-09-26T21:46:03.071Z,14.68
2022-09-26T21:48:30.134Z,14.67
2022-09-26T21:51:04.800Z,14.65
2022-09-26T21:53:46.453Z,14.62
2022-09-26T21:56:21.865Z,14.57
2022-09-26T21:58:49.589Z,14.52
2022-09-26T22:01:18.898Z,14.34
2022-09-26T22:03:45.988Z,14.02
2022-09-26T22:06:13.306Z,14.06
2022-09-26T22:08:40.873Z,14.14
2022-09-26T22:11:10.778Z,14.10
2022-09-26T22:13:39.143Z,14.05
2022-09-26T22:16:11.867Z,14.16
2022-09-26T22:18:40.549Z,14.12
2022-09-26T22:21:09.860Z,14.12
2022-09-26T22:23:37.389Z,14.16
2022-09-26T22:26:05.280Z,14.17
2022-09-26T22:28:32.589Z,13.96
2022-09-26T22:31:05.213Z,14.09
2022-09-26T22:33:33.560Z,13.94
2022-09-26T22:36:03.205Z,13.48
2022-09-26T22:38:30.598Z,13.85
2022-09-26T22:41:00.084Z,13.95
2022-09-26T22:43:30.188Z,13.77
2022-09-26T22:46:10.364Z,13.92
2022-09-26T22:48:44.334Z,13.81
2022-09-26T22:51:11.649Z,13.87
2022-09-26T22:53:40.282Z,13.53
2022-09-26T22:56:12.417Z,13.44
2022-09-26T22:58:47.943Z,13.49
2022-09-26T23:01:22.367Z,13.60
2022-09-26T23:03:50.558Z,13.55
2022-09-26T23:06:17.556Z,13.51
2022-09-26T23:08:44.777Z,13.49
2022-09-26T23:11:14.633Z,13.40
2022-09-26T23:13:44.092Z,13.40
2022-09-26T23:16:15.022Z,13.49
2022-09-26T23:18:43.758Z,13.43
2022-09-26T23:21:20.502Z,13.22
2022-09-26T23:23:55.074Z,13.39
2022-09-26T23:26:28.649Z,13.26
2022-09-26T23:29:00.129Z,13.46
2022-09-26T23:31:28.527Z,12.79
2022-09-26T23:33:56.387Z,12.83
2022-09-26T23:36:26.637Z,12.68
2022-09-26T23:38:56.414Z,12.32
2022-09-26T23:41:25.796Z,12.40
2022-09-26T23:43:55.101Z,12.66
2022-09-26T23:46:22.203Z,12.67
2022-09-26T23:48:49.219Z,12.73
2022-09-26T23:51:16.336Z,12.64
2022-09-26T23:53:43.414Z,12.65
2022-09-26T23:56:13.762Z,12.37
2022-09-26T23:58:41.652Z,12.19
